Cheney, KS

6:58 AM CST on February 28, 2015 (GMT -0600)
Hutchinson Municipal | Change Station
CLOSE
Current Station
Airport
Location: Hutchinson,
Elevation: 1542 ft
Nearby Weather Stations

Elev 1542 ft 38.07 °N, 97.86 °W | Updated 6 minutes ago

Snow
Snow
16 °F
Feels Like 4 °F
N
9
Wind Variable Wind from SSE

Today
High -- | Low -- °F
--% Chance of Precip.
Yesterday
High -- | Low -- °F
Precip. -- in
7:04 AM 6:23 PM
Waxing Gibbous, 77% visible
Pressure 30.46 in
Visibility 1.2 miles
Clouds Overcast 1900 ft
Windchill 4 °F
Dew Point 11 °F
Humidity 81%
Rainfall 0.00 in
Snow Depth Not available.
UV 0 out of 12
Pollen .40 out of 12
Air Quality Not available.
Flu Activity Not available.
METAR KHUT 281252Z 15008KT 1 1/4SM -SN OVC019 M09/M12 A3040 RMK AO2 SLP313 P0000 T10891117

More Conditions Fewer Conditions

Pressure 30.46 in
Visibility 1.2 miles
Clouds Overcast 1900 ft
Windchill 4 °F
Dew Point 11 °F
Humidity 81%
Rainfall 0.00 in
Snow Depth Not available.
UV 0 out of 12
Pollen .40 out of 12
Air Quality Not available.
Flu Activity Not available.
METAR KHUT 281252Z 15008KT 1 1/4SM -SN OVC019 M09/M12 A3040 RMK AO2 SLP313 P0000 T10891117

More Conditions Fewer Conditions

10-Day Weather Forecast

Almanac

Astronomy

Feb. 28, 2015 Rise Set
Actual Time
Civil Twilight
Nautical Twilight
Astronomical Twilight
Moon
Length of Visible Light
Length of Day
Tomorrow will be .
, % of the Moon is Illuminated

Today's Extremes

State Highs State Lows

Community

WunderPhotos

Upload Photos

1,801,000 photos uploaded!

WunderBlogs® & News

Nearby

Air Quality

  Air Quality AQ Index Pollutant
Not available.

Snow Depth

Station Depth Elevation

Earthquake Activity

City Distance Mag. Time & Date
Minimum magnitude displayed is 2.5.

Coastal Water Temperatures

Place Temperature

Nearby Weather Stations

Winter Weather Advisory
Statement as of 2:52 AM CST on February 28, 2015

... Winter Weather Advisory remains in effect until noon CST
Sunday...

* timing... from today through midday Sunday.

* Snow accumulations... of 2 to 5 inches are expected by midday
Sunday with the higher amounts affecting southern Kansas.

* Main impacts... widespread accumulating snowfall will result in
reduced visibilities of 1/2 mile to 1 mile at times... along with
snowcovered and slick roads.

Precautionary/preparedness actions...

A Winter Weather Advisory means that periods of winter weather
will cause travel difficulties. Be prepared for slippery roads
and limited visibilities. Use caution while driving.



Jakub